createdAt,value
2023-03-20T00:02:02.074Z,6.18
2023-03-20T00:04:30.409Z,5.70
2023-03-20T00:06:58.189Z,6.88
2023-03-20T00:09:27.027Z,5.00
2023-03-20T00:11:55.941Z,6.18
2023-03-20T00:14:26.194Z,4.78
2023-03-20T00:16:54.171Z,6.95
2023-03-20T00:19:23.883Z,5.03
2023-03-20T00:21:53.029Z,4.70
2023-03-20T00:24:21.284Z,5.70
2023-03-20T00:26:51.063Z,5.55
2023-03-20T00:29:23.302Z,4.50
2023-03-20T00:31:53.010Z,5.05
2023-03-20T00:34:23.585Z,3.88
2023-03-20T00:36:51.568Z,4.07
2023-03-20T00:39:19.396Z,3.60
2023-03-20T00:41:51.496Z,3.90
2023-03-20T00:44:23.088Z,3.30
2023-03-20T00:46:54.792Z,3.97
2023-03-20T00:49:26.357Z,4.88
2023-03-20T00:51:54.294Z,2.42
2023-03-20T00:54:22.068Z,4.40
2023-03-20T00:56:55.887Z,3.08
2023-03-20T00:59:27.389Z,2.72
2023-03-20T01:01:56.612Z,2.72
2023-03-20T01:04:24.397Z,3.35
2023-03-20T01:06:52.552Z,3.67
2023-03-20T01:09:20.312Z,2.35
2023-03-20T01:11:48.154Z,5.97
2023-03-20T01:14:17.816Z,4.13
2023-03-20T01:16:45.776Z,2.90
2023-03-20T01:19:16.785Z,2.78
2023-03-20T01:21:44.838Z,3.60
2023-03-20T01:24:12.617Z,2.88
2023-03-20T01:26:42.007Z,3.53
2023-03-20T01:29:18.630Z,5.68
2023-03-20T01:31:47.055Z,2.72
2023-03-20T01:34:17.280Z,2.30
2023-03-20T01:36:49.340Z,2.40
2023-03-20T01:39:19.014Z,2.75
2023-03-20T01:41:47.945Z,2.20
2023-03-20T01:44:21.163Z,1.98
2023-03-20T01:46:50.604Z,4.40
2023-03-20T01:49:55.217Z,2.50
2023-03-20T01:52:24.474Z,2.25
2023-03-20T01:54:52.756Z,4.03
2023-03-20T01:57:23.360Z,3.20
2023-03-20T01:59:54.933Z,2.55
2023-03-20T02:02:26.022Z,3.92
2023-03-20T02:04:58.936Z,2.35
2023-03-20T02:07:28.217Z,4.28
2023-03-20T02:09:56.323Z,3.03
2023-03-20T02:12:24.272Z,4.72
2023-03-20T02:14:53.904Z,2.28
2023-03-20T02:17:22.077Z,2.45
2023-03-20T02:19:59.496Z,3.10
2023-03-20T02:23:01.522Z,3.45
2023-03-20T02:26:00.416Z,2.70
2023-03-20T02:28:59.349Z,2.72
2023-03-20T02:32:00.281Z,2.42
2023-03-20T02:34:52.092Z,3.45
2023-03-20T02:37:48.489Z,2.47
2023-03-20T02:40:25.379Z,4.25
2023-03-20T02:43:01.957Z,4.28
2023-03-20T02:45:35.805Z,3.65
2023-03-20T02:48:15.237Z,3.85
2023-03-20T02:50:49.660Z,4.28
2023-03-20T02:53:29.596Z,4.88
2023-03-20T02:56:04.424Z,4.63
2023-03-20T02:58:39.601Z,5.22
2023-03-20T03:01:14.240Z,4.40
2023-03-20T03:03:47.324Z,5.60
2023-03-20T03:06:22.994Z,3.55
2023-03-20T03:08:58.104Z,5.75
2023-03-20T03:11:26.410Z,3.38
2023-03-20T03:13:56.983Z,4.05
2023-03-20T03:16:27.817Z,3.50
2023-03-20T03:19:03.814Z,2.90
2023-03-20T03:21:32.877Z,3.97
2023-03-20T03:24:02.676Z,4.93
2023-03-20T03:26:35.498Z,5.88
2023-03-20T03:29:08.228Z,2.60
2023-03-20T03:31:38.811Z,2.90
2023-03-20T03:34:06.914Z,3.75
2023-03-20T03:36:45.529Z,4.75
2023-03-20T03:39:22.332Z,3.55
2023-03-20T03:41:53.109Z,4.38
2023-03-20T03:44:27.441Z,3.47
2023-03-20T03:46:57.928Z,3.10
2023-03-20T03:49:28.935Z,3.80
2023-03-20T03:52:01.567Z,7.28
2023-03-20T03:54:35.546Z,4.47
2023-03-20T03:57:04.465Z,7.20
2023-03-20T03:59:38.969Z,3.03
2023-03-20T04:02:08.964Z,3.95
2023-03-20T04:04:40.006Z,6.28
2023-03-20T04:07:07.822Z,3.97
2023-03-20T04:09:37.356Z,4.32
2023-03-20T04:12:06.674Z,5.20
2023-03-20T04:14:37.442Z,5.25
2023-03-20T04:17:05.271Z,6.22
2023-03-20T04:19:32.963Z,5.25
2023-03-20T04:22:01.043Z,4.80
2023-03-20T04:24:28.780Z,8.23
2023-03-20T04:26:57.840Z,5.35
2023-03-20T04:29:26.210Z,5.70
2023-03-20T04:31:53.982Z,6.18
2023-03-20T04:34:21.990Z,5.05
2023-03-20T04:36:50.162Z,6.60
2023-03-20T04:39:17.852Z,7.50
2023-03-20T04:41:46.093Z,6.28
2023-03-20T04:44:15.550Z,5.18
2023-03-20T04:46:43.222Z,7.03
2023-03-20T04:49:11.218Z,6.95
2023-03-20T04:51:38.902Z,6.70
2023-03-20T04:54:06.633Z,7.45
2023-03-20T04:56:34.398Z,6.25
2023-03-20T04:59:02.204Z,5.60
2023-03-20T05:01:31.256Z,6.40
2023-03-20T05:04:01.022Z,8.00
2023-03-20T05:06:29.018Z,7.45
2023-03-20T05:08:56.774Z,6.93
2023-03-20T05:11:24.535Z,5.15
2023-03-20T05:13:52.474Z,6.00
2023-03-20T05:16:20.461Z,6.07
2023-03-20T05:18:49.619Z,9.13
2023-03-20T05:21:17.375Z,5.97
2023-03-20T05:23:45.150Z,6.95
2023-03-20T05:26:12.843Z,6.35
2023-03-20T05:28:40.704Z,7.78
2023-03-20T05:31:08.589Z,7.85
2023-03-20T05:33:38.224Z,6.68
2023-03-20T05:36:08.598Z,7.05
2023-03-20T05:38:36.321Z,7.05
2023-03-20T05:41:04.071Z,7.68
2023-03-20T05:43:31.867Z,8.15
2023-03-20T05:45:59.703Z,8.32
2023-03-20T05:48:27.477Z,7.70
2023-03-20T05:50:55.191Z,8.60
2023-03-20T05:53:24.276Z,7.82
2023-03-20T05:55:52.032Z,8.07
2023-03-20T05:58:19.836Z,8.63
2023-03-20T06:00:47.913Z,11.15
2023-03-20T06:03:15.828Z,11.07
2023-03-20T06:05:43.567Z,8.48
2023-03-20T06:08:11.766Z,9.65
2023-03-20T06:10:41.072Z,9.05
2023-03-20T06:13:08.877Z,10.63
2023-03-20T06:15:37.036Z,7.82
2023-03-20T06:18:05.679Z,10.02
2023-03-20T06:20:33.439Z,8.48
2023-03-20T06:23:01.311Z,11.35
2023-03-20T06:25:29.092Z,11.02
2023-03-20T06:27:58.625Z,9.38
2023-03-20T06:30:26.930Z,9.88
2023-03-20T06:32:55.035Z,8.80
2023-03-20T06:35:22.874Z,10.02
2023-03-20T06:37:50.590Z,9.98
2023-03-20T06:40:18.459Z,9.55
2023-03-20T06:42:46.321Z,7.97
2023-03-20T06:45:15.726Z,10.48
2023-03-20T06:47:43.974Z,12.70
2023-03-20T06:50:12.771Z,14.05
2023-03-20T06:52:40.756Z,10.48
2023-03-20T06:55:09.286Z,9.05
2023-03-20T06:57:37.068Z,11.63
2023-03-20T07:00:05.303Z,8.45
2023-03-20T07:02:34.418Z,11.95
2023-03-20T07:05:02.307Z,10.35
2023-03-20T07:07:30.312Z,11.55
2023-03-20T07:09:58.444Z,11.80
2023-03-20T07:12:28.644Z,13.55
2023-03-20T07:14:56.831Z,10.98
2023-03-20T07:17:24.699Z,12.75
2023-03-20T07:19:53.852Z,13.85
2023-03-20T07:22:23.964Z,12.52
2023-03-20T07:24:51.804Z,13.25
2023-03-20T07:27:19.772Z,11.38
2023-03-20T07:29:47.547Z,12.75
2023-03-20T07:32:15.326Z,11.93
2023-03-20T07:34:43.023Z,13.45
2023-03-20T07:37:12.131Z,12.38
2023-03-20T07:39:39.964Z,12.15
2023-03-20T07:42:07.749Z,11.80
2023-03-20T07:44:35.501Z,14.20
2023-03-20T07:47:03.210Z,11.48
2023-03-20T07:49:30.978Z,11.82
2023-03-20T07:51:58.760Z,13.43
2023-03-20T07:54:28.036Z,13.68
2023-03-20T07:56:55.874Z,14.35
2023-03-20T07:59:23.647Z,15.52
2023-03-20T08:01:52.233Z,13.32
2023-03-20T08:04:22.432Z,13.43
2023-03-20T08:06:51.157Z,11.65
2023-03-20T08:09:19.480Z,13.32
2023-03-20T08:11:48.648Z,13.68
2023-03-20T08:14:16.405Z,14.70
2023-03-20T08:16:44.108Z,14.05
2023-03-20T08:19:11.933Z,14.32
2023-03-20T08:21:40.129Z,16.05
2023-03-20T08:24:08.751Z,13.85
2023-03-20T08:26:37.131Z,17.63
2023-03-20T08:29:06.264Z,14.68
2023-03-20T08:31:34.000Z,16.35
2023-03-20T08:34:02.026Z,14.93
2023-03-20T08:36:29.776Z,17.92
2023-03-20T08:38:57.487Z,20.85
2023-03-20T08:41:25.224Z,17.42
2023-03-20T08:43:52.986Z,18.60
2023-03-20T08:46:22.137Z,22.30
2023-03-20T08:48:49.873Z,17.23
2023-03-20T08:51:17.625Z,18.73
2023-03-20T08:53:45.454Z,18.48
2023-03-20T08:56:13.159Z,18.67
2023-03-20T08:58:40.914Z,20.65
2023-03-20T09:01:11.870Z,19.52
2023-03-20T09:03:43.623Z,23.00
2023-03-20T09:06:13.836Z,28.33
2023-03-20T09:08:43.478Z,26.75
2023-03-20T09:11:13.212Z,19.63
2023-03-20T09:13:42.723Z,19.63
2023-03-20T09:16:14.932Z,27.00
2023-03-20T09:18:46.431Z,22.60
2023-03-20T09:21:16.264Z,19.52
2023-03-20T09:23:46.255Z,18.10
2023-03-20T09:26:15.984Z,29.95
2023-03-20T09:28:45.620Z,22.25
2023-03-20T09:31:15.420Z,23.88
2023-03-20T09:33:46.833Z,29.63
2023-03-20T09:36:16.382Z,27.60
2023-03-20T09:38:46.091Z,20.75
2023-03-20T09:41:22.220Z,21.58
2023-03-20T09:44:06.861Z,21.05
2023-03-20T09:46:50.044Z,23.33
2023-03-20T09:49:33.273Z,20.67
2023-03-20T09:52:04.601Z,27.05
2023-03-20T09:54:53.130Z,30.00
2023-03-20T09:57:26.290Z,17.90
2023-03-20T09:59:58.193Z,29.02
2023-03-20T10:02:37.068Z,20.65
2023-03-20T10:05:18.431Z,30.08
2023-03-20T10:07:46.349Z,18.65
2023-03-20T10:10:15.341Z,17.02
2023-03-20T10:13:00.130Z,13.65
2023-03-20T10:15:38.732Z,14.50
2023-03-20T10:18:16.527Z,13.05
2023-03-20T10:20:52.929Z,15.23
2023-03-20T10:23:27.997Z,10.32
2023-03-20T10:26:00.796Z,14.00
2023-03-20T10:28:34.076Z,13.43
2023-03-20T10:31:14.893Z,15.13
2023-03-20T10:33:55.682Z,11.50
2023-03-20T10:36:40.128Z,13.82
2023-03-20T10:39:13.060Z,14.48
2023-03-20T10:41:46.748Z,11.93
2023-03-20T10:44:20.038Z,12.38
2023-03-20T10:46:51.353Z,11.43
2023-03-20T10:49:22.880Z,10.68
2023-03-20T10:51:54.801Z,9.95
2023-03-20T10:54:28.030Z,12.15
2023-03-20T10:56:58.130Z,9.93
2023-03-20T10:59:29.295Z,10.13
2023-03-20T11:01:57.104Z,10.68
2023-03-20T11:04:25.732Z,11.32
2023-03-20T11:07:02.605Z,11.52
2023-03-20T11:09:31.301Z,11.05
2023-03-20T11:12:00.949Z,11.57
2023-03-20T11:14:34.764Z,10.63
2023-03-20T11:17:05.490Z,11.50
2023-03-20T11:19:35.999Z,12.40
2023-03-20T11:22:11.302Z,12.38
2023-03-20T11:24:43.189Z,10.13
2023-03-20T11:27:13.414Z,12.57
2023-03-20T11:29:45.702Z,7.88
2023-03-20T11:32:25.603Z,10.80
2023-03-20T11:34:57.235Z,9.02
2023-03-20T11:37:29.449Z,8.82
2023-03-20T11:40:01.242Z,10.85
2023-03-20T11:42:31.463Z,9.40
2023-03-20T11:45:18.196Z,10.65
2023-03-20T11:47:51.287Z,8.30
2023-03-20T11:50:33.007Z,7.20
2023-03-20T11:53:04.000Z,6.60
2023-03-20T11:55:34.145Z,5.95
2023-03-20T11:58:05.150Z,6.80
2023-03-20T12:00:38.794Z,8.20
2023-03-20T12:03:51.968Z,8.13
2023-03-20T12:06:21.960Z,7.25
2023-03-20T12:08:56.236Z,7.43
2023-03-20T12:11:44.310Z,8.48
2023-03-20T12:14:19.461Z,10.30
2023-03-20T12:16:49.518Z,7.20
2023-03-20T12:19:21.668Z,5.72
2023-03-20T12:21:56.944Z,8.85
2023-03-20T12:24:36.735Z,8.15
2023-03-20T12:27:18.100Z,12.50
2023-03-20T12:29:51.069Z,7.57
2023-03-20T12:32:24.661Z,5.60
2023-03-20T12:34:57.841Z,7.85
2023-03-20T12:37:30.603Z,5.65
2023-03-20T12:40:04.327Z,5.28
2023-03-20T12:42:45.689Z,5.68
2023-03-20T12:45:16.004Z,5.90
2023-03-20T12:48:05.831Z,5.63
2023-03-20T12:50:37.232Z,8.95
2023-03-20T12:53:27.894Z,5.00
2023-03-20T12:56:07.280Z,5.18
2023-03-20T12:58:44.894Z,5.65
2023-03-20T13:01:20.229Z,7.78
2023-03-20T13:04:00.989Z,5.40
2023-03-20T13:06:38.578Z,5.75
2023-03-20T13:09:37.669Z,5.35
2023-03-20T13:12:16.889Z,5.25
2023-03-20T13:14:51.837Z,3.80
2023-03-20T13:17:26.326Z,2.75
2023-03-20T13:20:12.770Z,4.18
2023-03-20T13:22:55.205Z,2.85
2023-03-20T13:25:43.452Z,3.17
2023-03-20T13:28:20.186Z,5.93
2023-03-20T13:30:55.718Z,2.33
2023-03-20T13:33:39.222Z,2.25
2023-03-20T13:36:18.320Z,2.63
2023-03-20T13:38:53.761Z,2.13
2023-03-20T13:41:25.460Z,2.63
2023-03-20T13:44:01.056Z,2.88
2023-03-20T13:46:33.990Z,4.35
2023-03-20T13:49:06.896Z,3.45
2023-03-20T13:51:40.426Z,3.95
2023-03-20T13:54:20.862Z,2.72
2023-03-20T13:56:57.842Z,2.35
2023-03-20T13:59:51.109Z,3.53
2023-03-20T14:02:35.602Z,2.53
2023-03-20T14:05:08.106Z,3.05
2023-03-20T14:07:37.885Z,3.30
2023-03-20T14:10:39.921Z,2.38
2023-03-20T14:13:14.401Z,5.90
2023-03-20T14:15:55.879Z,2.47
2023-03-20T14:18:26.372Z,2.70
2023-03-20T14:21:01.630Z,2.78
2023-03-20T14:23:37.729Z,3.50
2023-03-20T14:26:10.179Z,2.10
2023-03-20T14:28:55.985Z,3.97
2023-03-20T14:31:30.535Z,4.18
2023-03-20T14:34:09.786Z,3.50
2023-03-20T14:36:58.087Z,3.00
2023-03-20T14:39:43.094Z,3.78
2023-03-20T14:42:33.945Z,3.35
2023-03-20T14:45:32.614Z,3.70
2023-03-20T14:48:08.990Z,1.88
2023-03-20T14:50:41.668Z,3.20
2023-03-20T14:53:17.102Z,2.45
2023-03-20T14:56:06.606Z,3.03
2023-03-20T14:58:50.770Z,5.00
2023-03-20T15:01:26.356Z,2.97
2023-03-20T15:03:58.964Z,2.30
2023-03-20T15:06:28.743Z,1.77
2023-03-20T15:08:59.933Z,4.13
2023-03-20T15:11:28.071Z,2.00
2023-03-20T15:13:58.476Z,3.40
2023-03-20T15:16:29.710Z,2.83
2023-03-20T15:18:59.451Z,1.85
2023-03-20T15:21:34.053Z,4.78
2023-03-20T15:24:02.591Z,4.55
2023-03-20T15:26:32.997Z,1.02
2023-03-20T15:29:03.652Z,2.45
2023-03-20T15:31:33.532Z,6.15
2023-03-20T15:34:09.136Z,4.93
2023-03-20T15:36:39.948Z,2.53
2023-03-20T15:39:15.007Z,3.10
2023-03-20T15:41:47.059Z,3.67
2023-03-20T15:44:20.398Z,1.85
2023-03-20T15:46:57.524Z,2.53
2023-03-20T15:49:28.500Z,2.03
2023-03-20T15:52:00.192Z,6.75
2023-03-20T15:54:28.370Z,2.13
2023-03-20T15:57:00.460Z,4.80
2023-03-20T15:59:31.224Z,3.22
2023-03-20T16:02:00.452Z,3.30
2023-03-20T16:04:29.982Z,3.63
2023-03-20T16:07:00.068Z,5.20
2023-03-20T16:09:28.836Z,4.78
2023-03-20T16:11:58.746Z,1.45
2023-03-20T16:14:28.693Z,1.80
2023-03-20T16:16:59.107Z,3.47
2023-03-20T16:19:28.915Z,1.77
2023-03-20T16:22:00.638Z,1.88
2023-03-20T16:24:31.546Z,1.20
2023-03-20T16:26:59.473Z,2.10
2023-03-20T16:29:28.865Z,3.50
2023-03-20T16:32:00.239Z,3.15
2023-03-20T16:34:33.334Z,3.22
2023-03-20T16:37:07.204Z,4.43
2023-03-20T16:39:35.376Z,3.83
2023-03-20T16:42:12.549Z,1.83
2023-03-20T16:44:43.191Z,2.92
2023-03-20T16:47:20.969Z,3.70
2023-03-20T16:50:13.066Z,3.78
2023-03-20T16:52:47.200Z,4.47
2023-03-20T16:55:18.748Z,6.07
2023-03-20T16:57:50.588Z,6.43
2023-03-20T17:00:30.131Z,7.13
2023-03-20T17:03:02.388Z,4.72
2023-03-20T17:05:49.340Z,4.88
2023-03-20T17:08:26.544Z,8.35
2023-03-20T17:10:58.388Z,3.78
2023-03-20T17:13:26.281Z,4.65
2023-03-20T17:15:54.947Z,3.60
2023-03-20T17:18:23.148Z,4.93
2023-03-20T17:20:50.877Z,3.63
2023-03-20T17:23:22.327Z,2.70
2023-03-20T17:25:51.611Z,2.58
2023-03-20T17:28:21.654Z,2.47
2023-03-20T17:30:51.255Z,2.78
2023-03-20T17:33:20.834Z,2.78
2023-03-20T17:35:50.004Z,3.17
2023-03-20T17:38:21.373Z,2.17
2023-03-20T17:40:49.679Z,3.28
2023-03-20T17:43:18.766Z,2.50
2023-03-20T17:45:48.259Z,1.60
2023-03-20T17:48:20.521Z,4.15
2023-03-20T17:50:51.077Z,2.15
2023-03-20T17:53:23.861Z,3.63
2023-03-20T17:55:52.730Z,3.78
2023-03-20T17:58:22.501Z,2.55
2023-03-20T18:00:51.244Z,3.78
2023-03-20T18:03:19.480Z,2.88
2023-03-20T18:05:50.619Z,3.90
2023-03-20T18:08:22.182Z,3.08
2023-03-20T18:10:51.665Z,3.47
2023-03-20T18:13:20.994Z,2.03
2023-03-20T18:15:49.501Z,1.73
2023-03-20T18:18:17.529Z,3.40
2023-03-20T18:20:46.972Z,2.75
2023-03-20T18:23:15.454Z,7.40
2023-03-20T18:25:44.697Z,7.05
2023-03-20T18:28:20.578Z,3.60
2023-03-20T18:30:48.703Z,19.80
2023-03-20T18:33:17.450Z,4.57
2023-03-20T18:35:45.543Z,4.00
2023-03-20T18:38:14.352Z,10.05
2023-03-20T18:40:43.605Z,5.05
2023-03-20T18:43:12.654Z,8.10
2023-03-20T18:45:40.563Z,6.88
2023-03-20T18:48:11.544Z,7.60
2023-03-20T18:50:42.971Z,11.18
2023-03-20T18:53:11.777Z,12.48
2023-03-20T18:55:39.578Z,7.45
2023-03-20T18:58:08.986Z,7.93
2023-03-20T19:00:40.690Z,16.08
2023-03-20T19:03:09.654Z,15.32
2023-03-20T19:05:38.383Z,10.05
2023-03-20T19:08:06.818Z,11.65
2023-03-20T19:10:37.448Z,8.95
2023-03-20T19:13:07.376Z,4.72
2023-03-20T19:15:38.686Z,10.05
2023-03-20T19:18:08.172Z,7.18
2023-03-20T19:20:38.096Z,8.57
2023-03-20T19:23:07.661Z,8.55
2023-03-20T19:25:36.671Z,9.75
2023-03-20T19:28:05.494Z,6.18
2023-03-20T19:30:35.868Z,10.38
2023-03-20T19:33:06.448Z,10.95
2023-03-20T19:38:23.833Z,5.47
2023-03-20T19:40:53.335Z,7.57
2023-03-20T19:43:21.503Z,5.57
2023-03-20T19:45:51.749Z,2.90
2023-03-20T19:48:22.976Z,3.55
2023-03-20T19:50:51.765Z,3.10
2023-03-20T19:53:21.500Z,5.60
2023-03-20T19:55:49.465Z,4.40
2023-03-20T19:58:17.301Z,4.53
2023-03-20T20:01:00.824Z,4.47
2023-03-20T20:03:30.578Z,4.75
2023-03-20T20:05:59.220Z,4.90
2023-03-20T20:08:43.021Z,1.88
2023-03-20T20:11:14.407Z,2.80
2023-03-20T20:14:04.289Z,6.50
2023-03-20T20:16:31.137Z,4.78
2023-03-20T20:19:00.364Z,4.57
2023-03-20T20:22:13.278Z,3.83
2023-03-20T20:24:17.118Z,4.40
2023-03-20T20:26:54.377Z,7.32
2023-03-20T20:29:25.412Z,6.68
2023-03-20T20:31:53.318Z,5.00
2023-03-20T20:35:29.985Z,6.90
2023-03-20T20:37:51.727Z,3.97
2023-03-20T20:39:58.513Z,4.15
2023-03-20T20:42:26.409Z,8.30
2023-03-20T20:44:54.239Z,5.88
2023-03-20T20:47:21.987Z,4.35
2023-03-20T20:49:51.094Z,2.90
2023-03-20T20:52:18.900Z,4.03
2023-03-20T20:54:48.238Z,4.75
2023-03-20T20:57:16.307Z,1.90
2023-03-20T20:59:44.045Z,5.20
2023-03-20T21:02:12.521Z,3.97
2023-03-20T21:04:41.152Z,4.15
2023-03-20T21:07:11.884Z,7.63
2023-03-20T21:09:40.383Z,6.97
2023-03-20T21:12:10.294Z,6.93
2023-03-20T21:14:38.559Z,6.15
2023-03-20T21:17:07.196Z,5.03
2023-03-20T21:19:37.193Z,3.60
2023-03-20T21:22:05.689Z,5.82
2023-03-20T21:24:35.357Z,2.72
2023-03-20T21:27:04.563Z,3.08
2023-03-20T21:29:32.373Z,6.43
2023-03-20T21:32:00.343Z,4.45
2023-03-20T21:34:28.870Z,7.30
2023-03-20T21:36:57.827Z,4.82
2023-03-20T21:39:28.554Z,10.38
2023-03-20T21:41:58.215Z,8.82
2023-03-20T21:45:08.151Z,3.88
2023-03-20T21:48:17.272Z,5.22
2023-03-20T21:50:48.466Z,5.13
2023-03-20T22:01:58.932Z,5.05
2023-03-20T22:05:02.017Z,3.78
2023-03-20T22:07:38.398Z,3.45
2023-03-20T22:10:16.498Z,4.00
2023-03-20T22:13:14.043Z,5.07
2023-03-20T22:15:54.470Z,6.55
2023-03-20T22:21:37.013Z,2.85
2023-03-20T22:24:31.068Z,7.00
2023-03-20T22:46:40.007Z,4.20
2023-03-20T22:48:59.629Z,3.17
2023-03-20T22:51:34.343Z,8.02
2023-03-20T22:54:03.645Z,4.97
2023-03-20T22:56:31.409Z,3.80
2023-03-20T22:58:59.119Z,6.07
2023-03-20T23:01:27.720Z,7.05
2023-03-20T23:03:55.474Z,6.25
2023-03-20T23:06:27.205Z,6.50
2023-03-20T23:08:58.409Z,4.78
2023-03-20T23:11:28.485Z,6.57
2023-03-20T23:13:57.200Z,4.75
2023-03-20T23:16:25.104Z,4.55
2023-03-20T23:18:53.027Z,3.58
2023-03-20T23:21:20.887Z,5.85
2023-03-20T23:23:49.975Z,5.22
2023-03-20T23:26:20.877Z,4.28
2023-03-20T23:28:51.286Z,5.55
2023-03-20T23:31:21.160Z,4.53
2023-03-20T23:33:50.938Z,4.82
2023-03-20T23:36:32.975Z,4.40
2023-03-20T23:39:05.115Z,6.00
2023-03-20T23:42:01.700Z,7.00
2023-03-20T23:44:20.854Z,5.80
2023-03-20T23:46:48.708Z,8.32
2023-03-20T23:49:17.356Z,7.88
2023-03-20T23:51:45.431Z,8.80
2023-03-20T23:54:14.728Z,8.95
2023-03-20T23:56:42.479Z,9.52
2023-03-20T23:59:21.097Z,6.22
